createdAt,value
2019-05-25T00:00:20.239Z,99878.00
2019-05-25T00:02:55.850Z,99869.00
2019-05-25T00:05:32.267Z,99872.00
2019-05-25T00:08:08.272Z,99867.00
2019-05-25T00:10:37.789Z,99863.00
2019-05-25T00:13:13.629Z,99888.00
2019-05-25T00:15:44.230Z,99861.00
2019-05-25T00:18:19.837Z,99861.00
2019-05-25T00:20:55.449Z,99859.00
2019-05-25T00:23:24.895Z,99865.00
2019-05-25T00:26:01.058Z,99864.00
2019-05-25T00:28:30.578Z,99864.00
2019-05-25T00:31:06.411Z,99859.00
2019-05-25T00:33:35.847Z,99852.00
2019-05-25T00:36:11.817Z,99849.00
2019-05-25T00:38:41.264Z,99857.00
2019-05-25T00:41:17.664Z,99859.00
2019-05-25T00:43:54.039Z,99851.00
2019-05-25T00:46:30.351Z,99851.00
2019-05-25T00:49:06.632Z,99859.00
2019-05-25T00:51:42.954Z,99852.00
2019-05-25T00:54:27.389Z,99864.00
2019-05-25T00:56:56.585Z,99855.00
2019-05-25T00:59:33.073Z,99847.00
2019-05-25T01:02:09.604Z,99840.00
2019-05-25T01:04:39.054Z,99840.00
2019-05-25T01:07:15.003Z,99842.00
2019-05-25T01:09:44.479Z,99830.00
2019-05-25T01:12:21.182Z,99832.00
2019-05-25T01:14:51.720Z,99840.00
2019-05-25T01:17:27.687Z,99843.00
2019-05-25T01:20:04.260Z,99842.00
2019-05-25T01:22:33.854Z,99841.00
2019-05-25T01:25:09.968Z,99853.00
2019-05-25T01:27:39.636Z,99832.00
2019-05-25T01:30:17.767Z,99841.00
2019-05-25T01:32:54.339Z,99835.00
2019-05-25T01:35:23.803Z,99841.00
2019-05-25T01:38:00.005Z,99839.00
2019-05-25T01:40:29.530Z,99849.00
2019-05-25T01:43:05.184Z,99857.00
2019-05-25T01:45:41.420Z,99852.00
2019-05-25T01:48:17.038Z,99854.00
2019-05-25T01:50:46.501Z,99845.00
2019-05-25T01:53:22.174Z,99841.00
2019-05-25T01:55:57.873Z,99846.00
2019-05-25T01:58:41.106Z,99844.00
2019-05-25T02:01:10.632Z,99850.00
2019-05-25T02:03:46.604Z,99841.00
2019-05-25T02:06:16.109Z,99835.00
2019-05-25T02:08:51.845Z,99837.00
2019-05-25T02:11:21.365Z,99845.00
2019-05-25T02:13:57.934Z,99839.00
2019-05-25T02:16:27.543Z,99844.00
2019-05-25T02:19:03.311Z,99846.00
2019-05-25T02:21:32.767Z,99838.00
2019-05-25T02:24:08.730Z,99844.00
2019-05-25T02:26:38.200Z,99836.00
2019-05-25T02:29:14.779Z,99826.00
2019-05-25T02:31:44.306Z,99829.00
2019-05-25T02:34:13.817Z,99826.00
2019-05-25T02:36:50.262Z,99825.00
2019-05-25T02:39:26.003Z,99826.00
2019-05-25T02:42:02.557Z,99819.00
2019-05-25T02:44:32.218Z,99813.00
2019-05-25T02:47:08.565Z,99823.00
2019-05-25T02:49:50.941Z,99821.00
2019-05-25T02:52:27.158Z,99809.00
2019-05-25T02:54:56.687Z,99818.00
2019-05-25T02:57:32.435Z,99810.00
2019-05-25T03:00:08.249Z,99807.00
2019-05-25T03:02:44.646Z,99817.00
2019-05-25T03:05:22.563Z,99817.00
2019-05-25T03:07:53.318Z,99817.00
2019-05-25T03:10:29.675Z,99824.00
2019-05-25T03:13:02.808Z,99818.00
2019-05-25T03:15:38.889Z,99820.00
2019-05-25T03:18:08.479Z,99811.00
2019-05-25T03:20:44.689Z,99820.00
2019-05-25T03:23:14.230Z,99817.00
2019-05-25T03:25:50.810Z,99735.00
2019-05-25T03:28:20.380Z,99817.00
2019-05-25T03:30:56.166Z,99822.00
2019-05-25T03:33:25.677Z,99830.00
2019-05-25T03:36:02.348Z,99825.00
2019-05-25T03:38:31.791Z,99824.00
2019-05-25T03:41:14.108Z,99826.00
2019-05-25T03:43:43.556Z,99826.00
2019-05-25T03:46:19.400Z,99827.00
2019-05-25T03:48:48.859Z,99833.00
2019-05-25T03:51:24.652Z,99825.00
2019-05-25T03:54:00.454Z,99830.00
2019-05-25T03:56:30.108Z,99833.00
2019-05-25T03:59:12.577Z,99828.00
2019-05-25T04:01:42.047Z,99838.00
2019-05-25T04:04:18.726Z,99836.00
2019-05-25T04:06:48.169Z,99838.00
2019-05-25T04:09:24.576Z,99830.00
2019-05-25T04:11:54.037Z,99839.00
2019-05-25T04:14:30.078Z,99840.00
2019-05-25T04:16:59.535Z,99839.00
2019-05-25T04:19:35.145Z,99850.00
2019-05-25T04:22:04.899Z,99841.00
2019-05-25T04:24:41.394Z,99858.00
2019-05-25T04:27:10.910Z,99847.00
2019-05-25T04:29:47.059Z,99851.00
2019-05-25T04:32:16.575Z,99850.00
2019-05-25T04:34:53.007Z,99851.00
2019-05-25T04:37:29.032Z,99859.00
2019-05-25T04:40:04.987Z,99853.00
2019-05-25T04:42:34.441Z,99858.00
2019-05-25T04:45:12.461Z,99862.00
2019-05-25T04:47:41.922Z,99864.00
2019-05-25T04:50:18.133Z,99859.00
2019-05-25T04:52:54.018Z,99862.00
2019-05-25T04:55:30.015Z,99865.00
2019-05-25T04:57:59.466Z,99876.00
2019-05-25T05:00:41.825Z,99877.00
2019-05-25T05:03:11.317Z,99879.00
2019-05-25T05:05:40.873Z,99882.00
2019-05-25T05:08:16.955Z,99886.00
2019-05-25T05:10:46.464Z,99887.00
2019-05-25T05:13:22.415Z,99888.00
2019-05-25T05:15:58.034Z,99894.00
2019-05-25T05:18:34.000Z,99887.00
2019-05-25T05:21:03.704Z,99893.00
2019-05-25T05:23:39.694Z,99901.00
2019-05-25T05:26:09.133Z,99904.00
2019-05-25T05:28:49.063Z,99903.00
2019-05-25T05:31:23.650Z,99904.00
2019-05-25T05:33:54.916Z,99909.00
2019-05-25T05:36:25.670Z,99902.00
2019-05-25T05:39:11.472Z,99907.00
2019-05-25T05:41:47.800Z,99914.00
2019-05-25T05:44:28.707Z,99924.00
2019-05-25T05:47:10.293Z,99914.00
2019-05-25T05:49:46.092Z,99922.00
2019-05-25T05:52:20.161Z,99929.00
2019-05-25T05:54:59.179Z,99935.00
2019-05-25T05:57:28.657Z,99942.00
2019-05-25T06:00:04.734Z,99948.00
2019-05-25T06:02:41.338Z,99954.00
2019-05-25T06:05:18.119Z,99953.00
2019-05-25T06:07:47.562Z,99957.00
2019-05-25T06:10:24.023Z,99959.00
2019-05-25T06:13:00.053Z,99962.00
2019-05-25T06:15:36.186Z,99964.00
2019-05-25T06:18:05.874Z,99972.00
2019-05-25T06:20:42.483Z,99989.00
2019-05-25T06:23:12.626Z,99932.00
2019-05-25T06:25:42.211Z,99971.00
2019-05-25T06:28:22.277Z,99967.00
2019-05-25T06:30:49.763Z,99941.00
2019-05-25T06:33:25.823Z,99984.00
2019-05-25T06:35:55.338Z,99982.00
2019-05-25T06:38:31.098Z,99984.00
2019-05-25T06:41:00.695Z,99950.00
2019-05-25T06:43:30.284Z,99988.00
2019-05-25T06:46:13.541Z,99979.00
2019-05-25T06:48:49.323Z,99990.00
2019-05-25T06:51:25.563Z,99985.00
2019-05-25T06:54:01.397Z,99991.00
2019-05-25T06:56:30.915Z,99994.00
2019-05-25T06:59:07.138Z,100003.00
2019-05-25T07:01:43.236Z,99996.00
2019-05-25T07:04:25.306Z,99997.00
2019-05-25T07:06:54.938Z,99998.00
2019-05-25T07:09:30.904Z,99997.00
2019-05-25T07:12:00.603Z,99998.00
2019-05-25T07:14:36.711Z,99994.00
2019-05-25T07:17:06.292Z,99985.00
2019-05-25T07:19:41.908Z,99992.00
2019-05-25T07:22:11.431Z,100001.00
2019-05-25T07:24:40.899Z,99988.00
2019-05-25T07:27:16.979Z,99989.00
2019-05-25T07:29:46.507Z,99996.00
2019-05-25T07:32:22.363Z,100002.00
2019-05-25T07:34:51.958Z,100000.00
2019-05-25T07:37:28.477Z,100006.00
2019-05-25T07:39:58.018Z,100001.00
2019-05-25T07:42:34.705Z,100007.00
2019-05-25T07:45:17.624Z,100024.00
2019-05-25T07:47:47.145Z,100017.00
2019-05-25T07:50:17.406Z,100019.00
2019-05-25T07:52:53.604Z,100017.00
2019-05-25T07:55:23.051Z,100026.00
2019-05-25T07:58:15.916Z,100022.00
2019-05-25T08:00:36.953Z,100018.00
2019-05-25T08:03:13.217Z,100029.00
2019-05-25T08:05:55.371Z,100016.00
2019-05-25T08:08:31.368Z,100028.00
2019-05-25T08:11:00.829Z,100031.00
2019-05-25T08:13:30.270Z,99995.00
2019-05-25T08:16:06.715Z,100042.00
2019-05-25T08:18:36.244Z,100047.00
2019-05-25T08:21:12.349Z,100051.00
2019-05-25T08:23:41.870Z,100056.00
2019-05-25T08:26:18.206Z,100013.00
2019-05-25T08:28:47.737Z,100058.00
2019-05-25T08:31:24.160Z,100061.00
2019-05-25T08:33:53.690Z,100046.00
2019-05-25T08:36:30.010Z,100059.00
2019-05-25T08:39:06.271Z,100073.00
2019-05-25T08:41:35.789Z,100057.00
2019-05-25T08:44:11.600Z,100066.00
2019-05-25T08:46:47.240Z,100061.00
2019-05-25T08:49:23.889Z,100060.00
2019-05-25T08:51:55.006Z,100070.00
2019-05-25T08:54:31.195Z,100064.00
2019-05-25T08:57:06.890Z,100086.00
2019-05-25T08:59:43.453Z,100080.00
2019-05-25T09:02:13.123Z,100089.00
2019-05-25T09:04:56.201Z,100075.00
2019-05-25T09:07:25.665Z,100104.00
2019-05-25T09:09:55.190Z,100103.00
2019-05-25T09:12:31.819Z,100102.00
2019-05-25T09:15:01.350Z,100111.00
2019-05-25T09:17:37.693Z,100104.00
2019-05-25T09:20:16.097Z,100097.00
2019-05-25T09:22:45.554Z,100102.00
2019-05-25T09:25:15.422Z,100102.00
2019-05-25T09:27:51.646Z,100103.00
2019-05-25T09:30:21.338Z,100103.00
2019-05-25T09:32:57.699Z,100077.00
2019-05-25T09:35:33.329Z,100094.00
2019-05-25T09:38:02.854Z,100097.00
2019-05-25T09:40:38.650Z,100093.00
2019-05-25T09:43:08.169Z,100095.00
2019-05-25T09:45:50.346Z,100094.00
2019-05-25T09:48:19.869Z,100099.00
2019-05-25T09:50:55.489Z,100101.00
2019-05-25T09:53:26.569Z,100095.00
2019-05-25T09:56:02.708Z,100095.00
2019-05-25T09:58:32.340Z,100106.00
2019-05-25T10:01:08.964Z,100111.00
2019-05-25T10:03:44.990Z,100121.00
2019-05-25T10:06:21.023Z,100122.00
2019-05-25T10:08:57.539Z,100126.00
2019-05-25T10:11:27.087Z,100125.00
2019-05-25T10:14:03.447Z,100126.00
2019-05-25T10:16:33.035Z,100134.00
2019-05-25T10:19:13.110Z,100126.00
2019-05-25T10:21:42.570Z,100131.00
2019-05-25T10:24:18.882Z,100132.00
2019-05-25T10:26:48.344Z,100136.00
2019-05-25T10:29:36.736Z,100135.00
2019-05-25T10:31:55.758Z,100129.00
2019-05-25T10:34:32.078Z,100116.00
2019-05-25T10:37:08.493Z,100118.00
2019-05-25T10:39:38.094Z,100133.00
2019-05-25T10:42:14.287Z,100118.00
2019-05-25T10:44:50.826Z,100110.00
2019-05-25T10:47:33.557Z,100126.00
2019-05-25T10:50:11.031Z,100121.00
2019-05-25T10:52:40.633Z,100116.00
2019-05-25T10:55:18.031Z,100123.00
2019-05-25T10:57:53.832Z,100110.00
2019-05-25T11:00:30.206Z,100125.00
2019-05-25T11:03:06.388Z,100128.00
2019-05-25T11:05:41.985Z,100127.00
2019-05-25T11:08:24.923Z,100139.00
2019-05-25T11:10:54.596Z,100125.00
2019-05-25T11:13:30.186Z,100134.00
2019-05-25T11:16:06.283Z,100134.00
2019-05-25T11:18:35.883Z,100132.00
2019-05-25T11:21:12.182Z,100139.00
2019-05-25T11:23:48.432Z,100143.00
2019-05-25T11:26:17.960Z,100131.00
2019-05-25T11:28:53.897Z,100143.00
2019-05-25T11:31:30.391Z,100134.00
2019-05-25T11:34:00.087Z,100146.00
2019-05-25T11:36:37.260Z,100140.00
2019-05-25T11:39:16.145Z,100131.00
2019-05-25T11:41:52.863Z,100132.00
2019-05-25T11:44:22.422Z,100140.00
2019-05-25T11:46:58.616Z,100136.00
2019-05-25T11:49:28.101Z,100135.00
2019-05-25T11:52:04.666Z,100127.00
2019-05-25T11:54:34.347Z,100132.00
2019-05-25T11:57:03.938Z,100128.00
2019-05-25T11:59:40.286Z,100124.00
2019-05-25T12:02:16.575Z,100132.00
2019-05-25T12:04:53.272Z,100136.00
2019-05-25T12:07:29.157Z,100137.00
2019-05-25T12:10:14.099Z,100143.00
2019-05-25T12:12:43.715Z,100140.00
2019-05-25T12:15:21.768Z,100135.00
2019-05-25T12:17:51.306Z,100133.00
2019-05-25T12:20:27.663Z,100134.00
2019-05-25T12:22:57.179Z,100126.00
2019-05-25T12:25:33.341Z,100141.00
2019-05-25T12:28:09.836Z,100139.00
2019-05-25T12:30:45.922Z,100140.00
2019-05-25T12:33:15.588Z,100144.00
2019-05-25T12:35:45.364Z,100149.00
2019-05-25T12:38:21.406Z,100141.00
2019-05-25T12:40:53.969Z,100143.00
2019-05-25T12:43:28.769Z,100144.00
2019-05-25T12:46:11.091Z,100134.00
2019-05-25T12:48:40.625Z,100141.00
2019-05-25T12:51:17.967Z,100142.00
2019-05-25T12:53:47.598Z,100147.00
2019-05-25T12:56:23.230Z,100149.00
2019-05-25T12:58:59.140Z,100148.00
2019-05-25T13:01:35.696Z,100146.00
2019-05-25T13:04:12.305Z,100148.00
2019-05-25T13:06:48.171Z,100154.00
2019-05-25T13:09:31.203Z,100151.00
2019-05-25T13:12:07.795Z,100149.00
2019-05-25T13:14:44.278Z,100156.00
2019-05-25T13:17:13.723Z,100163.00
2019-05-25T13:19:49.474Z,100166.00
2019-05-25T13:22:18.938Z,100164.00
2019-05-25T13:24:54.989Z,100164.00
2019-05-25T13:27:31.609Z,100152.00
2019-05-25T13:30:08.217Z,100157.00
2019-05-25T13:32:37.742Z,100152.00
2019-05-25T13:35:15.735Z,100152.00
2019-05-25T13:37:45.235Z,100158.00
2019-05-25T13:40:21.400Z,100151.00
2019-05-25T13:42:50.857Z,100156.00
2019-05-25T13:45:27.115Z,100165.00
2019-05-25T13:47:56.642Z,100159.00
2019-05-25T13:50:33.504Z,100160.00
2019-05-25T13:53:02.973Z,100162.00
2019-05-25T13:55:38.588Z,100163.00
2019-05-25T13:58:15.151Z,100155.00
2019-05-25T14:00:44.696Z,100154.00
2019-05-25T14:03:27.897Z,100150.00
2019-05-25T14:05:57.424Z,100163.00
2019-05-25T14:08:40.185Z,100161.00
2019-05-25T14:11:23.113Z,100168.00
2019-05-25T14:13:52.808Z,100165.00
2019-05-25T14:16:28.824Z,100162.00
2019-05-25T14:18:58.283Z,100166.00
2019-05-25T14:21:27.743Z,100160.00
2019-05-25T14:24:03.845Z,100163.00
2019-05-25T14:26:33.385Z,100164.00
2019-05-25T14:29:09.351Z,100158.00
2019-05-25T14:31:45.520Z,100157.00
2019-05-25T14:34:09.903Z,100168.00
2019-05-25T14:36:46.340Z,100165.00
2019-05-25T14:39:15.936Z,100170.00
2019-05-25T14:41:52.298Z,100163.00
2019-05-25T14:44:21.819Z,100168.00
2019-05-25T14:46:58.290Z,100124.00
2019-05-25T14:49:27.808Z,100160.00
2019-05-25T14:52:03.460Z,100175.00
2019-05-25T14:54:33.020Z,100162.00
2019-05-25T14:57:15.791Z,100167.00
2019-05-25T14:59:46.860Z,100168.00
2019-05-25T15:02:16.464Z,100154.00
2019-05-25T15:04:52.570Z,100166.00
2019-05-25T15:07:28.799Z,100162.00
2019-05-25T15:10:04.585Z,100166.00
2019-05-25T15:12:47.623Z,100171.00
2019-05-25T15:15:17.296Z,100165.00
2019-05-25T15:17:53.940Z,100171.00
2019-05-25T15:20:23.630Z,100170.00
2019-05-25T15:22:59.336Z,100166.00
2019-05-25T15:25:35.085Z,100171.00
2019-05-25T15:28:04.676Z,100168.00
2019-05-25T15:30:34.371Z,100160.00
2019-05-25T15:33:10.517Z,100165.00
2019-05-25T15:35:47.000Z,100149.00
2019-05-25T15:38:23.537Z,100156.00
2019-05-25T15:40:53.077Z,100155.00
2019-05-25T15:43:29.061Z,100169.00
2019-05-25T15:46:11.859Z,100154.00
2019-05-25T15:48:41.329Z,100161.00
2019-05-25T15:51:17.085Z,100156.00
2019-05-25T15:53:53.519Z,100155.00
2019-05-25T15:56:23.072Z,100158.00
2019-05-25T15:58:58.703Z,100154.00
2019-05-25T16:01:28.224Z,100166.00
2019-05-25T16:04:03.954Z,100175.00
2019-05-25T16:06:39.672Z,100182.00
2019-05-25T16:09:09.553Z,100175.00
2019-05-25T16:11:52.530Z,100173.00
2019-05-25T16:14:22.063Z,100185.00
2019-05-25T16:16:58.232Z,100176.00
2019-05-25T16:19:27.839Z,100182.00
2019-05-25T16:22:04.346Z,100171.00
2019-05-25T16:24:33.884Z,100171.00
2019-05-25T16:27:09.934Z,100170.00
2019-05-25T16:29:46.598Z,100186.00
2019-05-25T16:32:16.070Z,100166.00
2019-05-25T16:34:51.693Z,100179.00
2019-05-25T16:37:21.490Z,100179.00
2019-05-25T16:40:04.431Z,100175.00
2019-05-25T16:42:40.855Z,100172.00
2019-05-25T16:45:17.891Z,100170.00
2019-05-25T16:47:53.645Z,100178.00
2019-05-25T16:50:30.294Z,100174.00
2019-05-25T16:53:06.342Z,100171.00
2019-05-25T16:55:35.869Z,100191.00
2019-05-25T16:58:11.952Z,100173.00
2019-05-25T17:00:47.767Z,100171.00
2019-05-25T17:03:28.686Z,100162.00
2019-05-25T17:05:55.067Z,100167.00
2019-05-25T17:08:24.647Z,100176.00
2019-05-25T17:11:01.094Z,100167.00
2019-05-25T17:13:44.314Z,100168.00
2019-05-25T17:16:13.784Z,100168.00
2019-05-25T17:18:43.349Z,100167.00
2019-05-25T17:21:19.736Z,100165.00
2019-05-25T17:23:50.745Z,100175.00
2019-05-25T17:26:27.104Z,100165.00
2019-05-25T17:28:56.710Z,100161.00
2019-05-25T17:31:33.003Z,100164.00
2019-05-25T17:34:02.608Z,100168.00
2019-05-25T17:36:39.337Z,100169.00
2019-05-25T17:39:15.638Z,100162.00
2019-05-25T17:41:52.193Z,100158.00
2019-05-25T17:44:28.282Z,100164.00
2019-05-25T17:46:57.869Z,100165.00
2019-05-25T17:49:34.373Z,100166.00
2019-05-25T17:52:03.976Z,100164.00
2019-05-25T17:54:40.899Z,100160.00
2019-05-25T17:57:11.745Z,100158.00
2019-05-25T17:59:48.061Z,100153.00
2019-05-25T18:02:26.363Z,100166.00
2019-05-25T18:05:02.006Z,100164.00
2019-05-25T18:07:31.612Z,100165.00
2019-05-25T18:10:07.387Z,100162.00
2019-05-25T18:12:46.957Z,100157.00
2019-05-25T18:15:22.066Z,100163.00
2019-05-25T18:17:51.702Z,100172.00
2019-05-25T18:20:28.103Z,100181.00
2019-05-25T18:22:57.701Z,100171.00
2019-05-25T18:25:33.952Z,100170.00
2019-05-25T18:28:03.630Z,100167.00
2019-05-25T18:30:39.599Z,100167.00
2019-05-25T18:33:09.272Z,100167.00
2019-05-25T18:35:38.827Z,100165.00
2019-05-25T18:38:14.791Z,100170.00
2019-05-25T18:40:44.530Z,100175.00
2019-05-25T18:43:21.913Z,100168.00
2019-05-25T18:45:51.425Z,100164.00
2019-05-25T18:48:34.934Z,100174.00
2019-05-25T18:51:04.604Z,100166.00
2019-05-25T18:53:34.292Z,100176.00
2019-05-25T18:56:10.991Z,100161.00
2019-05-25T18:58:42.153Z,100157.00
2019-05-25T19:01:18.435Z,100163.00
2019-05-25T19:03:55.093Z,100163.00
2019-05-25T19:06:24.617Z,100161.00
2019-05-25T19:09:02.012Z,100172.00
2019-05-25T19:11:45.962Z,100171.00
2019-05-25T19:14:28.656Z,100166.00
2019-05-25T19:17:05.149Z,100174.00
2019-05-25T19:19:42.861Z,100172.00
2019-05-25T19:22:12.586Z,100170.00
2019-05-25T19:24:42.252Z,100168.00
2019-05-25T19:27:18.276Z,100179.00
2019-05-25T19:29:54.895Z,100171.00
2019-05-25T19:32:25.008Z,100174.00
2019-05-25T19:34:59.394Z,100177.00
2019-05-25T19:37:32.532Z,100167.00
2019-05-25T19:40:08.630Z,100163.00
2019-05-25T19:42:40.468Z,100164.00
2019-05-25T19:45:11.229Z,100163.00
2019-05-25T19:47:47.668Z,100164.00
2019-05-25T19:50:17.467Z,100159.00
2019-05-25T19:52:53.773Z,100163.00
2019-05-25T19:55:23.457Z,100161.00
2019-05-25T19:57:59.235Z,100161.00
2019-05-25T20:00:28.986Z,100155.00
2019-05-25T20:03:05.716Z,100164.00
2019-05-25T20:05:35.478Z,100159.00
2019-05-25T20:08:18.246Z,100162.00
2019-05-25T20:10:47.935Z,100165.00
2019-05-25T20:13:24.496Z,100167.00
2019-05-25T20:16:07.575Z,100162.00
2019-05-25T20:18:44.053Z,100171.00
2019-05-25T20:21:13.704Z,100159.00
2019-05-25T20:23:51.977Z,100168.00
2019-05-25T20:26:23.190Z,100167.00
2019-05-25T20:28:52.796Z,100159.00
2019-05-25T20:31:28.625Z,100165.00
2019-05-25T20:33:59.980Z,100169.00
2019-05-25T20:36:36.112Z,100162.00
2019-05-25T20:39:07.894Z,100165.00
2019-05-25T20:41:44.836Z,100185.00
2019-05-25T20:44:14.509Z,100175.00
2019-05-25T20:46:51.254Z,100182.00
2019-05-25T20:49:27.699Z,100179.00
2019-05-25T20:52:03.927Z,100176.00
2019-05-25T20:54:33.465Z,100179.00
2019-05-25T20:57:09.479Z,100177.00
2019-05-25T20:59:39.143Z,100179.00
2019-05-25T21:02:15.408Z,100188.00
2019-05-25T21:04:44.865Z,100177.00
2019-05-25T21:07:21.284Z,100073.00
2019-05-25T21:09:50.977Z,100176.00
2019-05-25T21:12:27.500Z,100181.00
2019-05-25T21:15:07.500Z,100180.00
2019-05-25T21:17:50.418Z,100177.00
2019-05-25T21:20:20.099Z,100174.00
2019-05-25T21:22:55.822Z,100177.00
2019-05-25T21:25:25.571Z,100180.00
2019-05-25T21:27:55.107Z,100181.00
2019-05-25T21:30:31.311Z,100175.00
2019-05-25T21:33:00.910Z,100181.00
2019-05-25T21:35:37.726Z,100186.00
2019-05-25T21:38:07.332Z,100185.00
2019-05-25T21:40:43.417Z,100188.00
2019-05-25T21:43:12.963Z,100182.00
2019-05-25T21:45:48.578Z,100177.00
2019-05-25T21:48:18.176Z,100180.00
2019-05-25T21:50:54.282Z,100176.00
2019-05-25T21:53:23.953Z,100166.00
2019-05-25T21:55:53.500Z,100163.00
2019-05-25T21:58:29.706Z,100164.00
2019-05-25T22:01:13.548Z,100169.00
2019-05-25T22:03:43.226Z,100160.00
2019-05-25T22:06:24.371Z,100158.00
2019-05-25T22:08:51.018Z,100160.00
2019-05-25T22:11:27.309Z,100155.00
2019-05-25T22:13:56.840Z,100154.00
2019-05-25T22:16:32.898Z,100158.00
2019-05-25T22:19:09.418Z,100148.00
2019-05-25T22:21:39.007Z,100141.00
2019-05-25T22:24:15.439Z,100139.00
2019-05-25T22:26:44.952Z,100144.00
2019-05-25T22:29:23.919Z,100150.00
2019-05-25T22:31:56.193Z,100142.00
2019-05-25T22:34:32.742Z,100149.00
2019-05-25T22:37:02.191Z,100141.00
2019-05-25T22:39:38.606Z,100139.00
2019-05-25T22:42:14.674Z,100134.00
2019-05-25T22:44:51.038Z,100131.00
2019-05-25T22:47:20.568Z,100135.00
2019-05-25T22:50:09.474Z,100135.00
2019-05-25T22:52:38.991Z,100068.00
2019-05-25T22:55:22.625Z,100130.00
2019-05-25T22:57:52.086Z,100125.00
2019-05-25T23:00:28.642Z,100123.00
2019-05-25T23:02:58.788Z,100125.00
2019-05-25T23:05:34.527Z,100125.00
2019-05-25T23:08:04.288Z,100126.00
2019-05-25T23:10:40.559Z,100119.00
2019-05-25T23:13:10.094Z,100116.00
2019-05-25T23:15:45.830Z,100115.00
2019-05-25T23:18:28.308Z,100110.00
2019-05-25T23:20:57.764Z,100115.00
2019-05-25T23:23:34.162Z,100131.00
2019-05-25T23:26:03.636Z,100110.00
2019-05-25T23:28:40.193Z,100116.00
2019-05-25T23:31:09.667Z,100109.00
2019-05-25T23:33:45.402Z,100101.00
2019-05-25T23:36:14.850Z,100110.00
2019-05-25T23:38:51.165Z,100108.00
2019-05-25T23:41:27.029Z,100102.00
2019-05-25T23:44:03.432Z,100095.00
2019-05-25T23:46:32.969Z,100097.00
2019-05-25T23:49:16.530Z,100129.00
2019-05-25T23:51:46.124Z,100100.00
2019-05-25T23:54:28.778Z,100089.00
2019-05-25T23:56:58.311Z,100092.00
2019-05-25T23:59:27.914Z,100094.00
